sensor_id;sensor_type;location;lat;lon;timestamp;P1;durP1;ratioP1;P2;durP2;ratioP2
77246;SDS011;66279;42.820;23.374;2023-06-10T00:01:41;22.33;;;11.15;;
77246;SDS011;66279;42.820;23.374;2023-06-10T00:04:08;18.70;;;10.18;;
77246;SDS011;66279;42.820;23.374;2023-06-10T00:06:34;22.92;;;11.05;;
77246;SDS011;66279;42.820;23.374;2023-06-10T00:09:03;32.70;;;11.15;;
77246;SDS011;66279;42.820;23.374;2023-06-10T00:11:30;17.77;;;9.45;;
77246;SDS011;66279;42.820;23.374;2023-06-10T00:13:57;20.15;;;10.43;;
77246;SDS011;66279;42.820;23.374;2023-06-10T00:16:22;20.52;;;9.98;;
77246;SDS011;66279;42.820;23.374;2023-06-10T00:18:49;16.98;;;9.95;;
77246;SDS011;66279;42.820;23.374;2023-06-10T00:21:16;20.50;;;10.25;;
77246;SDS011;66279;42.820;23.374;2023-06-10T00:23:42;20.13;;;10.10;;
77246;SDS011;66279;42.820;23.374;2023-06-10T00:26:08;19.92;;;10.02;;
77246;SDS011;66279;42.820;23.374;2023-06-10T00:28:34;19.77;;;10.05;;
77246;SDS011;66279;42.820;23.374;2023-06-10T00:31:00;17.58;;;10.60;;
77246;SDS011;66279;42.820;23.374;2023-06-10T00:33:25;20.67;;;10.82;;
77246;SDS011;66279;42.820;23.374;2023-06-10T00:35:51;18.35;;;10.27;;
77246;SDS011;66279;42.820;23.374;2023-06-10T00:38:17;23.00;;;10.07;;
77246;SDS011;66279;42.820;23.374;2023-06-10T00:40:42;20.75;;;10.68;;
77246;SDS011;66279;42.820;23.374;2023-06-10T00:43:08;22.70;;;11.77;;
77246;SDS011;66279;42.820;23.374;2023-06-10T00:45:33;20.92;;;10.55;;
77246;SDS011;66279;42.820;23.374;2023-06-10T00:47:59;20.80;;;10.30;;
77246;SDS011;66279;42.820;23.374;2023-06-10T00:50:26;20.15;;;11.52;;
77246;SDS011;66279;42.820;23.374;2023-06-10T00:52:52;17.60;;;10.52;;
77246;SDS011;66279;42.820;23.374;2023-06-10T00:55:18;20.42;;;10.63;;
77246;SDS011;66279;42.820;23.374;2023-06-10T00:57:45;24.52;;;10.23;;
77246;SDS011;66279;42.820;23.374;2023-06-10T01:00:11;25.85;;;11.40;;
77246;SDS011;66279;42.820;23.374;2023-06-10T01:02:38;19.17;;;10.82;;
77246;SDS011;66279;42.820;23.374;2023-06-10T01:05:04;19.15;;;9.82;;
77246;SDS011;66279;42.820;23.374;2023-06-10T01:10:16;21.27;;;11.73;;
77246;SDS011;66279;42.820;23.374;2023-06-10T01:15:24;14.70;;;8.93;;
77246;SDS011;66279;42.820;23.374;2023-06-10T01:18:06;21.05;;;9.27;;
77246;SDS011;66279;42.820;23.374;2023-06-10T01:20:41;16.17;;;9.20;;
77246;SDS011;66279;42.820;23.374;2023-06-10T01:23:08;16.17;;;9.60;;
77246;SDS011;66279;42.820;23.374;2023-06-10T01:25:57;19.77;;;9.50;;
77246;SDS011;66279;42.820;23.374;2023-06-10T01:28:39;19.05;;;10.05;;
77246;SDS011;66279;42.820;23.374;2023-06-10T01:34:06;18.73;;;9.57;;
77246;SDS011;66279;42.820;23.374;2023-06-10T01:36:33;20.65;;;10.27;;
77246;SDS011;66279;42.820;23.374;2023-06-10T01:39:00;19.50;;;10.20;;
77246;SDS011;66279;42.820;23.374;2023-06-10T01:41:29;22.08;;;10.82;;
77246;SDS011;66279;42.820;23.374;2023-06-10T01:43:56;19.30;;;9.63;;
77246;SDS011;66279;42.820;23.374;2023-06-10T01:46:21;24.77;;;10.68;;
77246;SDS011;66279;42.820;23.374;2023-06-10T01:48:47;21.25;;;10.13;;
77246;SDS011;66279;42.820;23.374;2023-06-10T01:51:13;21.65;;;9.95;;
77246;SDS011;66279;42.820;23.374;2023-06-10T01:53:38;20.15;;;10.25;;
77246;SDS011;66279;42.820;23.374;2023-06-10T01:56:03;22.83;;;10.20;;
77246;SDS011;66279;42.820;23.374;2023-06-10T01:58:29;17.52;;;9.93;;
77246;SDS011;66279;42.820;23.374;2023-06-10T02:00:55;20.35;;;10.90;;
77246;SDS011;66279;42.820;23.374;2023-06-10T02:03:21;22.20;;;10.07;;
77246;SDS011;66279;42.820;23.374;2023-06-10T02:05:46;23.35;;;9.80;;
77246;SDS011;66279;42.820;23.374;2023-06-10T02:08:12;17.30;;;9.98;;
77246;SDS011;66279;42.820;23.374;2023-06-10T02:10:37;23.33;;;10.85;;
77246;SDS011;66279;42.820;23.374;2023-06-10T02:13:03;19.33;;;10.65;;
77246;SDS011;66279;42.820;23.374;2023-06-10T02:15:28;20.48;;;10.45;;
77246;SDS011;66279;42.820;23.374;2023-06-10T02:17:54;17.75;;;9.68;;
77246;SDS011;66279;42.820;23.374;2023-06-10T02:20:20;19.77;;;11.68;;
77246;SDS011;66279;42.820;23.374;2023-06-10T02:22:46;21.52;;;11.30;;
77246;SDS011;66279;42.820;23.374;2023-06-10T02:25:12;19.88;;;10.23;;
77246;SDS011;66279;42.820;23.374;2023-06-10T02:27:37;18.30;;;9.45;;
77246;SDS011;66279;42.820;23.374;2023-06-10T02:30:03;25.58;;;10.80;;
77246;SDS011;66279;42.820;23.374;2023-06-10T02:32:28;21.15;;;11.50;;
77246;SDS011;66279;42.820;23.374;2023-06-10T02:34:54;22.38;;;11.77;;
77246;SDS011;66279;42.820;23.374;2023-06-10T02:37:20;22.35;;;12.10;;
77246;SDS011;66279;42.820;23.374;2023-06-10T02:39:46;21.27;;;10.93;;
77246;SDS011;66279;42.820;23.374;2023-06-10T02:42:11;34.33;;;11.70;;
77246;SDS011;66279;42.820;23.374;2023-06-10T02:44:37;18.67;;;10.68;;
77246;SDS011;66279;42.820;23.374;2023-06-10T02:47:03;28.73;;;11.95;;
77246;SDS011;66279;42.820;23.374;2023-06-10T02:49:29;21.05;;;11.68;;
77246;SDS011;66279;42.820;23.374;2023-06-10T02:51:55;23.05;;;10.70;;
77246;SDS011;66279;42.820;23.374;2023-06-10T02:54:22;19.00;;;11.15;;
77246;SDS011;66279;42.820;23.374;2023-06-10T02:56:48;21.83;;;10.65;;
77246;SDS011;66279;42.820;23.374;2023-06-10T02:59:14;19.92;;;10.38;;
77246;SDS011;66279;42.820;23.374;2023-06-10T03:01:40;15.80;;;10.07;;
77246;SDS011;66279;42.820;23.374;2023-06-10T03:04:06;19.90;;;8.57;;
77246;SDS011;66279;42.820;23.374;2023-06-10T03:06:32;17.05;;;7.90;;
77246;SDS011;66279;42.820;23.374;2023-06-10T03:08:59;16.30;;;8.25;;
77246;SDS011;66279;42.820;23.374;2023-06-10T03:11:25;11.18;;;7.68;;
77246;SDS011;66279;42.820;23.374;2023-06-10T03:13:51;11.88;;;7.03;;
77246;SDS011;66279;42.820;23.374;2023-06-10T03:16:18;12.80;;;6.45;;
77246;SDS011;66279;42.820;23.374;2023-06-10T03:18:44;10.60;;;6.82;;
77246;SDS011;66279;42.820;23.374;2023-06-10T03:21:10;9.85;;;7.25;;
77246;SDS011;66279;42.820;23.374;2023-06-10T03:23:35;8.70;;;5.78;;
77246;SDS011;66279;42.820;23.374;2023-06-10T03:26:01;8.88;;;5.90;;
77246;SDS011;66279;42.820;23.374;2023-06-10T03:28:27;10.60;;;6.03;;
77246;SDS011;66279;42.820;23.374;2023-06-10T03:30:53;9.23;;;5.55;;
77246;SDS011;66279;42.820;23.374;2023-06-10T03:33:18;9.23;;;5.45;;
77246;SDS011;66279;42.820;23.374;2023-06-10T03:35:44;8.55;;;5.20;;
77246;SDS011;66279;42.820;23.374;2023-06-10T03:38:10;8.10;;;5.35;;
77246;SDS011;66279;42.820;23.374;2023-06-10T03:40:36;10.05;;;5.57;;
77246;SDS011;66279;42.820;23.374;2023-06-10T03:43:01;9.88;;;6.28;;
77246;SDS011;66279;42.820;23.374;2023-06-10T03:45:27;7.93;;;5.60;;
77246;SDS011;66279;42.820;23.374;2023-06-10T03:47:53;8.95;;;6.00;;
77246;SDS011;66279;42.820;23.374;2023-06-10T03:50:19;9.82;;;4.78;;
77246;SDS011;66279;42.820;23.374;2023-06-10T03:52:44;7.30;;;5.05;;
77246;SDS011;66279;42.820;23.374;2023-06-10T03:55:10;10.27;;;6.03;;
77246;SDS011;66279;42.820;23.374;2023-06-10T03:57:38;10.57;;;6.50;;
77246;SDS011;66279;42.820;23.374;2023-06-10T04:00:04;9.80;;;5.97;;
77246;SDS011;66279;42.820;23.374;2023-06-10T04:02:37;8.93;;;5.43;;
77246;SDS011;66279;42.820;23.374;2023-06-10T04:05:15;10.38;;;5.28;;
77246;SDS011;66279;42.820;23.374;2023-06-10T04:07:41;8.20;;;6.05;;
77246;SDS011;66279;42.820;23.374;2023-06-10T04:10:08;11.52;;;6.03;;
77246;SDS011;66279;42.820;23.374;2023-06-10T04:12:34;11.52;;;6.82;;
77246;SDS011;66279;42.820;23.374;2023-06-10T04:15:00;9.77;;;5.57;;
77246;SDS011;66279;42.820;23.374;2023-06-10T04:17:25;10.82;;;6.13;;
77246;SDS011;66279;42.820;23.374;2023-06-10T04:19:51;10.32;;;6.07;;
77246;SDS011;66279;42.820;23.374;2023-06-10T04:22:17;8.98;;;6.20;;
77246;SDS011;66279;42.820;23.374;2023-06-10T04:24:43;9.65;;;6.78;;
77246;SDS011;66279;42.820;23.374;2023-06-10T04:27:08;10.10;;;6.03;;
77246;SDS011;66279;42.820;23.374;2023-06-10T04:29:35;13.32;;;5.85;;
77246;SDS011;66279;42.820;23.374;2023-06-10T04:32:01;12.98;;;6.78;;
77246;SDS011;66279;42.820;23.374;2023-06-10T04:34:27;11.80;;;6.45;;
77246;SDS011;66279;42.820;23.374;2023-06-10T04:36:52;11.77;;;5.97;;
77246;SDS011;66279;42.820;23.374;2023-06-10T04:39:18;9.52;;;5.57;;
77246;SDS011;66279;42.820;23.374;2023-06-10T04:41:45;9.63;;;6.20;;
77246;SDS011;66279;42.820;23.374;2023-06-10T04:44:11;11.98;;;6.88;;
77246;SDS011;66279;42.820;23.374;2023-06-10T04:46:37;11.40;;;6.20;;
77246;SDS011;66279;42.820;23.374;2023-06-10T04:49:03;14.75;;;6.68;;
77246;SDS011;66279;42.820;23.374;2023-06-10T04:51:30;11.27;;;6.68;;
77246;SDS011;66279;42.820;23.374;2023-06-10T04:53:55;9.40;;;6.10;;
77246;SDS011;66279;42.820;23.374;2023-06-10T04:56:21;12.63;;;6.88;;
77246;SDS011;66279;42.820;23.374;2023-06-10T04:58:46;9.23;;;6.57;;
77246;SDS011;66279;42.820;23.374;2023-06-10T05:01:12;9.93;;;6.72;;
77246;SDS011;66279;42.820;23.374;2023-06-10T05:03:37;10.13;;;6.72;;
77246;SDS011;66279;42.820;23.374;2023-06-10T05:06:03;11.60;;;6.38;;
77246;SDS011;66279;42.820;23.374;2023-06-10T05:08:28;13.00;;;8.38;;
77246;SDS011;66279;42.820;23.374;2023-06-10T05:10:54;9.40;;;6.75;;
77246;SDS011;66279;42.820;23.374;2023-06-10T05:13:19;10.65;;;7.25;;
77246;SDS011;66279;42.820;23.374;2023-06-10T05:15:45;12.30;;;7.10;;
77246;SDS011;66279;42.820;23.374;2023-06-10T05:18:11;16.25;;;7.97;;
77246;SDS011;66279;42.820;23.374;2023-06-10T05:20:37;16.02;;;9.57;;
77246;SDS011;66279;42.820;23.374;2023-06-10T05:23:03;17.63;;;10.35;;
77246;SDS011;66279;42.820;23.374;2023-06-10T05:25:31;13.80;;;9.68;;
77246;SDS011;66279;42.820;23.374;2023-06-10T05:27:58;16.48;;;9.70;;
77246;SDS011;66279;42.820;23.374;2023-06-10T05:30:23;15.93;;;9.20;;
77246;SDS011;66279;42.820;23.374;2023-06-10T05:32:50;14.98;;;9.07;;
77246;SDS011;66279;42.820;23.374;2023-06-10T05:35:16;18.23;;;9.15;;
77246;SDS011;66279;42.820;23.374;2023-06-10T05:37:42;17.98;;;9.60;;
77246;SDS011;66279;42.820;23.374;2023-06-10T05:40:08;16.05;;;9.48;;
77246;SDS011;66279;42.820;23.374;2023-06-10T05:42:33;24.13;;;11.10;;
77246;SDS011;66279;42.820;23.374;2023-06-10T05:44:59;18.40;;;10.05;;
77246;SDS011;66279;42.820;23.374;2023-06-10T05:47:24;14.00;;;9.75;;
77246;SDS011;66279;42.820;23.374;2023-06-10T05:49:50;15.98;;;9.55;;
77246;SDS011;66279;42.820;23.374;2023-06-10T05:52:17;14.23;;;9.18;;
77246;SDS011;66279;42.820;23.374;2023-06-10T05:54:43;15.70;;;8.85;;
77246;SDS011;66279;42.820;23.374;2023-06-10T05:57:09;17.13;;;9.65;;
77246;SDS011;66279;42.820;23.374;2023-06-10T05:59:35;15.20;;;9.93;;
77246;SDS011;66279;42.820;23.374;2023-06-10T06:02:01;19.60;;;10.50;;
77246;SDS011;66279;42.820;23.374;2023-06-10T06:04:26;17.65;;;9.35;;
77246;SDS011;66279;42.820;23.374;2023-06-10T06:06:52;17.98;;;10.63;;
77246;SDS011;66279;42.820;23.374;2023-06-10T06:09:17;12.57;;;8.23;;
77246;SDS011;66279;42.820;23.374;2023-06-10T06:11:43;14.73;;;8.45;;
77246;SDS011;66279;42.820;23.374;2023-06-10T06:14:08;14.85;;;8.80;;
77246;SDS011;66279;42.820;23.374;2023-06-10T06:16:33;17.42;;;9.25;;
77246;SDS011;66279;42.820;23.374;2023-06-10T06:18:59;13.48;;;7.75;;
77246;SDS011;66279;42.820;23.374;2023-06-10T06:21:24;14.23;;;8.63;;
77246;SDS011;66279;42.820;23.374;2023-06-10T06:23:50;15.65;;;8.68;;
77246;SDS011;66279;42.820;23.374;2023-06-10T06:26:15;14.43;;;7.47;;
77246;SDS011;66279;42.820;23.374;2023-06-10T06:28:41;13.07;;;8.00;;
77246;SDS011;66279;42.820;23.374;2023-06-10T06:31:06;13.43;;;8.40;;
77246;SDS011;66279;42.820;23.374;2023-06-10T06:33:32;17.10;;;7.75;;
77246;SDS011;66279;42.820;23.374;2023-06-10T06:35:58;12.60;;;8.02;;
77246;SDS011;66279;42.820;23.374;2023-06-10T06:38:25;10.85;;;7.30;;
77246;SDS011;66279;42.820;23.374;2023-06-10T06:40:51;12.50;;;8.10;;
77246;SDS011;66279;42.820;23.374;2023-06-10T06:43:16;9.65;;;6.78;;
77246;SDS011;66279;42.820;23.374;2023-06-10T06:45:43;11.13;;;6.97;;
77246;SDS011;66279;42.820;23.374;2023-06-10T06:48:10;11.23;;;6.57;;
77246;SDS011;66279;42.820;23.374;2023-06-10T06:50:36;11.10;;;6.90;;
77246;SDS011;66279;42.820;23.374;2023-06-10T06:53:02;15.13;;;7.10;;
77246;SDS011;66279;42.820;23.374;2023-06-10T06:55:28;11.27;;;5.90;;
77246;SDS011;66279;42.820;23.374;2023-06-10T06:57:53;9.75;;;5.55;;
77246;SDS011;66279;42.820;23.374;2023-06-10T07:00:19;14.95;;;6.30;;
77246;SDS011;66279;42.820;23.374;2023-06-10T07:02:45;9.52;;;5.03;;
77246;SDS011;66279;42.820;23.374;2023-06-10T07:05:10;7.82;;;4.47;;
77246;SDS011;66279;42.820;23.374;2023-06-10T07:07:36;8.73;;;4.47;;
77246;SDS011;66279;42.820;23.374;2023-06-10T07:10:02;7.28;;;4.43;;
77246;SDS011;66279;42.820;23.374;2023-06-10T07:12:28;6.70;;;4.15;;
77246;SDS011;66279;42.820;23.374;2023-06-10T07:14:54;10.57;;;5.05;;
77246;SDS011;66279;42.820;23.374;2023-06-10T07:17:20;15.30;;;5.35;;
77246;SDS011;66279;42.820;23.374;2023-06-10T07:19:45;9.02;;;4.93;;
77246;SDS011;66279;42.820;23.374;2023-06-10T07:22:11;10.38;;;5.55;;
77246;SDS011;66279;42.820;23.374;2023-06-10T07:24:36;14.38;;;7.53;;
77246;SDS011;66279;42.820;23.374;2023-06-10T07:27:02;9.27;;;6.03;;
77246;SDS011;66279;42.820;23.374;2023-06-10T07:29:28;9.40;;;6.13;;
77246;SDS011;66279;42.820;23.374;2023-06-10T07:31:53;8.77;;;6.43;;
77246;SDS011;66279;42.820;23.374;2023-06-10T07:34:19;13.93;;;6.28;;
77246;SDS011;66279;42.820;23.374;2023-06-10T07:36:44;32.10;;;8.57;;
77246;SDS011;66279;42.820;23.374;2023-06-10T07:39:10;13.25;;;7.72;;
77246;SDS011;66279;42.820;23.374;2023-06-10T07:54:31;10.55;;;6.45;;
77246;SDS011;66279;42.820;23.374;2023-06-10T07:56:57;10.18;;;6.43;;
77246;SDS011;66279;42.820;23.374;2023-06-10T07:59:22;15.38;;;6.47;;
77246;SDS011;66279;42.820;23.374;2023-06-10T08:01:48;9.38;;;6.85;;
77246;SDS011;66279;42.820;23.374;2023-06-10T08:04:13;8.88;;;6.65;;
77246;SDS011;66279;42.820;23.374;2023-06-10T08:06:39;9.63;;;5.35;;
77246;SDS011;66279;42.820;23.374;2023-06-10T08:09:04;8.30;;;5.57;;
77246;SDS011;66279;42.820;23.374;2023-06-10T08:11:30;9.60;;;6.05;;
77246;SDS011;66279;42.820;23.374;2023-06-10T08:13:56;14.07;;;7.55;;
77246;SDS011;66279;42.820;23.374;2023-06-10T08:16:21;11.70;;;5.57;;
77246;SDS011;66279;42.820;23.374;2023-06-10T08:18:47;8.98;;;4.68;;
77246;SDS011;66279;42.820;23.374;2023-06-10T08:21:12;6.93;;;4.13;;
77246;SDS011;66279;42.820;23.374;2023-06-10T08:23:38;4.55;;;3.75;;
77246;SDS011;66279;42.820;23.374;2023-06-10T08:26:04;5.70;;;3.88;;
77246;SDS011;66279;42.820;23.374;2023-06-10T08:28:30;5.60;;;3.80;;
77246;SDS011;66279;42.820;23.374;2023-06-10T08:30:55;8.85;;;4.38;;
77246;SDS011;66279;42.820;23.374;2023-06-10T08:33:21;6.78;;;3.85;;
77246;SDS011;66279;42.820;23.374;2023-06-10T08:35:46;7.50;;;3.97;;
77246;SDS011;66279;42.820;23.374;2023-06-10T08:38:12;5.65;;;3.83;;
77246;SDS011;66279;42.820;23.374;2023-06-10T08:40:37;4.78;;;3.58;;
77246;SDS011;66279;42.820;23.374;2023-06-10T08:43:05;5.97;;;3.78;;
77246;SDS011;66279;42.820;23.374;2023-06-10T08:45:34;5.03;;;3.70;;
77246;SDS011;66279;42.820;23.374;2023-06-10T08:48:02;6.07;;;3.72;;
77246;SDS011;66279;42.820;23.374;2023-06-10T08:50:33;5.70;;;3.75;;
77246;SDS011;66279;42.820;23.374;2023-06-10T08:53:01;5.15;;;3.55;;
77246;SDS011;66279;42.820;23.374;2023-06-10T08:55:32;6.05;;;3.15;;
77246;SDS011;66279;42.820;23.374;2023-06-10T08:58:01;9.98;;;4.28;;
77246;SDS011;66279;42.820;23.374;2023-06-10T09:00:27;10.10;;;4.53;;
77246;SDS011;66279;42.820;23.374;2023-06-10T09:02:54;7.53;;;3.95;;
77246;SDS011;66279;42.820;23.374;2023-06-10T09:05:21;11.95;;;4.00;;
77246;SDS011;66279;42.820;23.374;2023-06-10T09:07:47;8.18;;;4.25;;
77246;SDS011;66279;42.820;23.374;2023-06-10T09:10:13;6.75;;;3.65;;
77246;SDS011;66279;42.820;23.374;2023-06-10T09:12:39;4.47;;;3.42;;
77246;SDS011;66279;42.820;23.374;2023-06-10T09:15:06;6.05;;;3.65;;
77246;SDS011;66279;42.820;23.374;2023-06-10T09:17:32;4.68;;;3.50;;
77246;SDS011;66279;42.820;23.374;2023-06-10T09:19:59;4.82;;;3.22;;
77246;SDS011;66279;42.820;23.374;2023-06-10T09:22:25;4.88;;;3.95;;
77246;SDS011;66279;42.820;23.374;2023-06-10T09:24:52;5.90;;;4.05;;
77246;SDS011;66279;42.820;23.374;2023-06-10T09:27:29;8.55;;;4.10;;
77246;SDS011;66279;42.820;23.374;2023-06-10T09:29:56;5.20;;;3.50;;
77246;SDS011;66279;42.820;23.374;2023-06-10T09:32:23;9.30;;;3.92;;
77246;SDS011;66279;42.820;23.374;2023-06-10T09:34:49;6.35;;;3.40;;
77246;SDS011;66279;42.820;23.374;2023-06-10T09:37:22;4.57;;;3.58;;
77246;SDS011;66279;42.820;23.374;2023-06-10T09:40:04;8.63;;;3.55;;
77246;SDS011;66279;42.820;23.374;2023-06-10T09:42:35;6.15;;;3.60;;
77246;SDS011;66279;42.820;23.374;2023-06-10T09:45:03;6.95;;;3.40;;
77246;SDS011;66279;42.820;23.374;2023-06-10T09:47:29;5.47;;;3.50;;
77246;SDS011;66279;42.820;23.374;2023-06-10T09:49:55;7.40;;;3.60;;
77246;SDS011;66279;42.820;23.374;2023-06-10T09:52:21;7.45;;;4.70;;
77246;SDS011;66279;42.820;23.374;2023-06-10T09:54:51;4.85;;;3.15;;
77246;SDS011;66279;42.820;23.374;2023-06-10T09:57:17;5.85;;;3.50;;
77246;SDS011;66279;42.820;23.374;2023-06-10T09:59:44;9.07;;;4.25;;
77246;SDS011;66279;42.820;23.374;2023-06-10T10:02:14;6.75;;;3.92;;
77246;SDS011;66279;42.820;23.374;2023-06-10T10:04:41;7.63;;;3.35;;
77246;SDS011;66279;42.820;23.374;2023-06-10T10:07:07;5.03;;;3.00;;
77246;SDS011;66279;42.820;23.374;2023-06-10T10:09:35;7.03;;;3.80;;
77246;SDS011;66279;42.820;23.374;2023-06-10T10:12:13;6.82;;;3.40;;
77246;SDS011;66279;42.820;23.374;2023-06-10T10:14:42;7.00;;;3.80;;
77246;SDS011;66279;42.820;23.374;2023-06-10T10:17:11;5.10;;;3.72;;
77246;SDS011;66279;42.820;23.374;2023-06-10T10:19:42;6.78;;;4.05;;
77246;SDS011;66279;42.820;23.374;2023-06-10T10:22:15;5.75;;;3.88;;
77246;SDS011;66279;42.820;23.374;2023-06-10T10:24:50;7.60;;;4.78;;
77246;SDS011;66279;42.820;23.374;2023-06-10T10:27:20;6.45;;;3.40;;
77246;SDS011;66279;42.820;23.374;2023-06-10T10:29:51;8.00;;;3.75;;
77246;SDS011;66279;42.820;23.374;2023-06-10T10:32:18;7.35;;;3.92;;
77246;SDS011;66279;42.820;23.374;2023-06-10T10:35:00;8.20;;;4.25;;
77246;SDS011;66279;42.820;23.374;2023-06-10T10:37:32;8.93;;;3.40;;
77246;SDS011;66279;42.820;23.374;2023-06-10T10:39:59;10.98;;;4.35;;
77246;SDS011;66279;42.820;23.374;2023-06-10T10:42:25;6.07;;;3.53;;
77246;SDS011;66279;42.820;23.374;2023-06-10T10:44:52;6.30;;;3.70;;
77246;SDS011;66279;42.820;23.374;2023-06-10T10:47:19;7.82;;;3.38;;
77246;SDS011;66279;42.820;23.374;2023-06-10T10:49:47;5.60;;;3.28;;
77246;SDS011;66279;42.820;23.374;2023-06-10T10:52:16;4.85;;;3.30;;
77246;SDS011;66279;42.820;23.374;2023-06-10T10:54:47;4.90;;;3.40;;
77246;SDS011;66279;42.820;23.374;2023-06-10T10:57:19;8.55;;;3.60;;
77246;SDS011;66279;42.820;23.374;2023-06-10T11:03:00;7.68;;;3.80;;
77246;SDS011;66279;42.820;23.374;2023-06-10T11:05:13;5.75;;;3.35;;
77246;SDS011;66279;42.820;23.374;2023-06-10T11:07:40;6.78;;;3.08;;
77246;SDS011;66279;42.820;23.374;2023-06-10T11:10:16;6.47;;;3.55;;
77246;SDS011;66279;42.820;23.374;2023-06-10T11:15:13;14.88;;;4.32;;
77246;SDS011;66279;42.820;23.374;2023-06-10T11:23:25;5.35;;;3.60;;
77246;SDS011;66279;42.820;23.374;2023-06-10T11:28:42;5.63;;;4.13;;
77246;SDS011;66279;42.820;23.374;2023-06-10T11:31:31;8.48;;;4.05;;
77246;SDS011;66279;42.820;23.374;2023-06-10T11:33:58;4.78;;;3.20;;
77246;SDS011;66279;42.820;23.374;2023-06-10T11:36:31;14.65;;;4.53;;
77246;SDS011;66279;42.820;23.374;2023-06-10T11:38:59;7.57;;;3.53;;
77246;SDS011;66279;42.820;23.374;2023-06-10T11:41:26;6.53;;;4.32;;
77246;SDS011;66279;42.820;23.374;2023-06-10T11:43:52;4.57;;;3.75;;
77246;SDS011;66279;42.820;23.374;2023-06-10T11:46:22;7.28;;;4.10;;
77246;SDS011;66279;42.820;23.374;2023-06-10T11:48:54;6.88;;;4.68;;
77246;SDS011;66279;42.820;23.374;2023-06-10T11:51:21;5.95;;;4.00;;
77246;SDS011;66279;42.820;23.374;2023-06-10T11:53:47;6.75;;;3.60;;
77246;SDS011;66279;42.820;23.374;2023-06-10T11:56:19;4.88;;;3.40;;
77246;SDS011;66279;42.820;23.374;2023-06-10T11:58:55;4.85;;;3.70;;
77246;SDS011;66279;42.820;23.374;2023-06-10T12:01:29;8.57;;;3.90;;
77246;SDS011;66279;42.820;23.374;2023-06-10T12:04:06;6.55;;;3.95;;
77246;SDS011;66279;42.820;23.374;2023-06-10T12:11:51;7.10;;;4.20;;
77246;SDS011;66279;42.820;23.374;2023-06-10T12:15:01;5.07;;;3.95;;
77246;SDS011;66279;42.820;23.374;2023-06-10T12:19:52;5.97;;;4.22;;
77246;SDS011;66279;42.820;23.374;2023-06-10T12:22:20;6.78;;;3.90;;
77246;SDS011;66279;42.820;23.374;2023-06-10T12:24:57;5.47;;;4.20;;
77246;SDS011;66279;42.820;23.374;2023-06-10T12:27:31;6.28;;;4.15;;
77246;SDS011;66279;42.820;23.374;2023-06-10T12:29:57;6.43;;;4.25;;
77246;SDS011;66279;42.820;23.374;2023-06-10T12:32:41;9.57;;;4.40;;
77246;SDS011;66279;42.820;23.374;2023-06-10T12:35:08;8.20;;;4.40;;
77246;SDS011;66279;42.820;23.374;2023-06-10T12:37:35;17.58;;;5.10;;
77246;SDS011;66279;42.820;23.374;2023-06-10T12:40:02;5.90;;;4.45;;
77246;SDS011;66279;42.820;23.374;2023-06-10T12:42:29;5.20;;;4.28;;
77246;SDS011;66279;42.820;23.374;2023-06-10T12:44:56;7.05;;;4.55;;
77246;SDS011;66279;42.820;23.374;2023-06-10T12:47:31;5.72;;;3.70;;
77246;SDS011;66279;42.820;23.374;2023-06-10T12:50:00;7.13;;;3.58;;
77246;SDS011;66279;42.820;23.374;2023-06-10T12:52:26;5.10;;;4.07;;
77246;SDS011;66279;42.820;23.374;2023-06-10T12:54:52;7.68;;;5.15;;
77246;SDS011;66279;42.820;23.374;2023-06-10T12:57:19;11.93;;;4.85;;
77246;SDS011;66279;42.820;23.374;2023-06-10T12:59:44;10.40;;;4.63;;
77246;SDS011;66279;42.820;23.374;2023-06-10T13:02:15;7.68;;;4.47;;
77246;SDS011;66279;42.820;23.374;2023-06-10T13:04:43;11.88;;;7.80;;
77246;SDS011;66279;42.820;23.374;2023-06-10T13:09:35;8.00;;;4.20;;
77246;SDS011;66279;42.820;23.374;2023-06-10T13:12:02;9.95;;;4.10;;
77246;SDS011;66279;42.820;23.374;2023-06-10T13:14:28;8.35;;;4.53;;
77246;SDS011;66279;42.820;23.374;2023-06-10T13:16:54;7.13;;;4.47;;
77246;SDS011;66279;42.820;23.374;2023-06-10T13:19:20;10.52;;;5.45;;
77246;SDS011;66279;42.820;23.374;2023-06-10T13:21:49;5.50;;;4.28;;
77246;SDS011;66279;42.820;23.374;2023-06-10T13:24:14;5.93;;;3.97;;
77246;SDS011;66279;42.820;23.374;2023-06-10T13:26:40;9.60;;;4.43;;
77246;SDS011;66279;42.820;23.374;2023-06-10T13:29:05;7.75;;;4.65;;
77246;SDS011;66279;42.820;23.374;2023-06-10T13:31:33;8.32;;;4.88;;
77246;SDS011;66279;42.820;23.374;2023-06-10T13:33:58;7.63;;;4.95;;
77246;SDS011;66279;42.820;23.374;2023-06-10T13:36:24;7.75;;;4.20;;
77246;SDS011;66279;42.820;23.374;2023-06-10T13:38:50;9.98;;;5.43;;
77246;SDS011;66279;42.820;23.374;2023-06-10T13:41:15;6.85;;;4.78;;
77246;SDS011;66279;42.820;23.374;2023-06-10T13:43:41;13.20;;;6.05;;
77246;SDS011;66279;42.820;23.374;2023-06-10T13:46:07;11.55;;;5.95;;
77246;SDS011;66279;42.820;23.374;2023-06-10T13:48:32;11.43;;;5.35;;
77246;SDS011;66279;42.820;23.374;2023-06-10T13:50:58;11.18;;;6.03;;
77246;SDS011;66279;42.820;23.374;2023-06-10T13:53:25;9.43;;;4.47;;
77246;SDS011;66279;42.820;23.374;2023-06-10T13:55:50;13.02;;;5.15;;
77246;SDS011;66279;42.820;23.374;2023-06-10T13:58:16;12.52;;;5.50;;
77246;SDS011;66279;42.820;23.374;2023-06-10T14:00:42;9.55;;;4.78;;
77246;SDS011;66279;42.820;23.374;2023-06-10T14:03:07;11.82;;;5.93;;
77246;SDS011;66279;42.820;23.374;2023-06-10T14:05:33;8.20;;;5.45;;
77246;SDS011;66279;42.820;23.374;2023-06-10T14:07:59;12.25;;;6.15;;
77246;SDS011;66279;42.820;23.374;2023-06-10T14:10:25;11.75;;;6.05;;
77246;SDS011;66279;42.820;23.374;2023-06-10T14:12:50;10.18;;;6.65;;
77246;SDS011;66279;42.820;23.374;2023-06-10T14:15:16;17.25;;;9.20;;
77246;SDS011;66279;42.820;23.374;2023-06-10T14:17:42;20.63;;;9.98;;
77246;SDS011;66279;42.820;23.374;2023-06-10T14:20:08;26.40;;;13.30;;
77246;SDS011;66279;42.820;23.374;2023-06-10T14:22:33;64.28;;;23.65;;
77246;SDS011;66279;42.820;23.374;2023-06-10T14:24:59;29.73;;;10.98;;
77246;SDS011;66279;42.820;23.374;2023-06-10T14:27:25;14.80;;;6.32;;
77246;SDS011;66279;42.820;23.374;2023-06-10T14:29:50;8.55;;;5.65;;
77246;SDS011;66279;42.820;23.374;2023-06-10T14:32:16;7.30;;;5.18;;
77246;SDS011;66279;42.820;23.374;2023-06-10T14:34:41;7.43;;;5.28;;
77246;SDS011;66279;42.820;23.374;2023-06-10T14:37:09;8.02;;;4.40;;
77246;SDS011;66279;42.820;23.374;2023-06-10T14:39:35;7.15;;;4.82;;
77246;SDS011;66279;42.820;23.374;2023-06-10T14:42:01;8.30;;;3.85;;
77246;SDS011;66279;42.820;23.374;2023-06-10T14:44:26;6.90;;;4.53;;
77246;SDS011;66279;42.820;23.374;2023-06-10T14:46:52;7.72;;;4.70;;
77246;SDS011;66279;42.820;23.374;2023-06-10T14:49:17;6.75;;;4.38;;
77246;SDS011;66279;42.820;23.374;2023-06-10T14:51:43;8.73;;;5.32;;
77246;SDS011;66279;42.820;23.374;2023-06-10T14:54:09;7.70;;;4.93;;
77246;SDS011;66279;42.820;23.374;2023-06-10T14:56:35;9.75;;;5.72;;
77246;SDS011;66279;42.820;23.374;2023-06-10T14:59:01;9.88;;;6.00;;
77246;SDS011;66279;42.820;23.374;2023-06-10T15:01:26;8.88;;;6.32;;
77246;SDS011;66279;42.820;23.374;2023-06-10T15:03:52;10.70;;;5.28;;
77246;SDS011;66279;42.820;23.374;2023-06-10T15:06:17;8.98;;;5.53;;
77246;SDS011;66279;42.820;23.374;2023-06-10T15:08:46;11.65;;;5.28;;
77246;SDS011;66279;42.820;23.374;2023-06-10T15:11:13;9.60;;;5.85;;